Denali National Park, AK

6:31 PM AKDT on October 22, 2014 (GMT -0800)
Minchumina | Change Station
CLOSE
Current Station
Airport
Location: Minchumina,
Elevation: 702 ft
Nearby Weather Stations

Elev 702 ft 63.89 °N, 152.30 °W | Updated 15 minutes ago

Mostly Cloudy
Mostly Cloudy
28 °F
Feels Like 28 °F
N
0
Wind Variable Wind from North
Gusts 11 mph

Today
High -- | Low -- °F
--% Chance of Precip.
Yesterday
High -- | Low -- °F
Precip. -- in
9:13 AM 6:20 PM
Waning Crescent, 1% visible
Pressure 29.66 in
Visibility 10.0 miles
Clouds
Dew Point 21 °F
Humidity 74%
Rainfall 0.00 in
Snow Depth Not available.
UV Not available.
Pollen Not available.
Air Quality Not available.
Flu Activity Sporadic
METAR PAMH 230216Z AUTO 00000KT 10SM M02/M06 A2966 RMK AO1

More Conditions Fewer Conditions

Pressure 29.66 in
Visibility 10.0 miles
Clouds
Dew Point 21 °F
Humidity 74%
Rainfall 0.00 in
Snow Depth Not available.
UV Not available.
Pollen Not available.
Air Quality Not available.
Flu Activity Sporadic
METAR PAMH 230216Z AUTO 00000KT 10SM M02/M06 A2966 RMK AO1

More Conditions Fewer Conditions

10-Day Weather Forecast

Almanac

Astronomy

Oct. 22, 2014 Rise Set
Actual Time 9:13 AM AKDT 6:20 PM AKDT
Civil Twilight 8:24 AM AKDT 7:10 PM AKDT
Nautical Twilight 7:29 AM AKDT 8:04 PM AKDT
Astronomical Twilight 6:35 AM AKDT 8:58 PM AKDT
Moon 7:44 AM AKDT (10/22) 6:07 PM AKDT (10/22)
Length of Visible Light 10h 45m
Length of Day
9h 07m
Tomorrow will be 6m 19s shorter.
Waning Crescent, 1% of the Moon is Illuminated
Today
Waning Crescent
Oct 23
New
Oct 30
First Quarter
Nov 6
Full
Nov 14
Last Quarter

Today's Extremes

State Highs State Lows

Community

WunderPhotos

Upload Photos

1,764,109 photos uploaded!

Nearby

Snow Depth

Station Depth Elevation
Susitna Valley High 0 in 375 ft
Point Mackenzie 1 in 200 ft
Little Chena Ridge 5 in 2000 ft
Munson Ridge 11 in 3100 ft
Granite Creek 6 in 1240 ft

Earthquake Activity

City Distance Mag. Time & Date
No recent earthquake activity has been reported nearby.
Minimum magnitude displayed is 2.5.

Coastal Water Temperatures

Place Temperature
No Stations Reporting

Nearby Weather Stations